createdAt,value
2022-10-02T00:01:16.713Z,100152.56
2022-10-02T00:03:45.559Z,100156.88
2022-10-02T00:06:23.154Z,100161.63
2022-10-02T00:08:56.969Z,100157.28
2022-10-02T00:11:33.885Z,100164.34
2022-10-02T00:14:03.592Z,100161.50
2022-10-02T00:16:38.469Z,100163.47
2022-10-02T00:19:06.125Z,100174.50
2022-10-02T00:21:38.180Z,100177.28
2022-10-02T00:24:13.540Z,100175.63
2022-10-02T00:26:48.004Z,100173.34
2022-10-02T00:29:26.422Z,100184.34
2022-10-02T00:32:12.197Z,100177.66
2022-10-02T00:34:47.669Z,100177.94
2022-10-02T00:37:28.145Z,100181.25
2022-10-02T00:40:03.603Z,100192.72
2022-10-02T00:42:53.157Z,100202.72
2022-10-02T00:45:26.078Z,100168.91
2022-10-02T00:48:11.198Z,100161.56
2022-10-02T00:50:50.337Z,100180.63
2022-10-02T00:53:31.925Z,100190.19
2022-10-02T00:56:27.978Z,100187.59
2022-10-02T00:59:12.564Z,100190.16
2022-10-02T01:02:06.080Z,100193.94
2022-10-02T01:04:38.075Z,100193.47
2022-10-02T01:07:08.759Z,100201.44
2022-10-02T01:09:36.660Z,100203.38
2022-10-02T01:12:03.848Z,100201.50
2022-10-02T01:14:35.354Z,100201.34
2022-10-02T01:17:02.884Z,100199.69
2022-10-02T01:19:39.037Z,100188.91
2022-10-02T01:22:14.453Z,100192.44
2022-10-02T01:24:52.377Z,100192.31
2022-10-02T01:27:19.507Z,100187.03
2022-10-02T01:29:51.210Z,100187.41
2022-10-02T01:32:18.449Z,100197.25
2022-10-02T01:34:45.903Z,100195.41
2022-10-02T01:37:12.919Z,100208.88
2022-10-02T01:39:40.466Z,100220.00
2022-10-02T01:42:07.215Z,100207.69
2022-10-02T01:44:34.051Z,100206.44
2022-10-02T01:47:15.577Z,100212.09
2022-10-02T01:50:17.413Z,100207.63
2022-10-02T01:53:03.896Z,100200.03
2022-10-02T01:56:07.899Z,100209.25
2022-10-02T01:58:41.207Z,100216.47
2022-10-02T02:01:22.310Z,100212.31
2022-10-02T02:04:01.180Z,100219.25
2022-10-02T02:06:30.912Z,100226.69
2022-10-02T02:09:01.991Z,100225.47
2022-10-02T02:11:29.838Z,100218.59
2022-10-02T02:14:05.180Z,100209.56
2022-10-02T02:16:41.305Z,100218.38
2022-10-02T02:19:23.030Z,100219.66
2022-10-02T02:22:08.308Z,100219.56
2022-10-02T02:24:41.001Z,100221.13
2022-10-02T02:27:14.068Z,100233.28
2022-10-02T02:29:44.157Z,100216.34
2022-10-02T02:32:16.529Z,100234.63
2022-10-02T02:34:49.800Z,100242.56
2022-10-02T02:37:20.364Z,100230.38
2022-10-02T02:39:54.828Z,100231.84
2022-10-02T02:42:26.258Z,100213.59
2022-10-02T02:45:02.646Z,100217.88
2022-10-02T02:47:34.611Z,100216.88
2022-10-02T02:50:11.608Z,100223.25
2022-10-02T02:52:47.665Z,100226.03
2022-10-02T02:55:28.043Z,100218.34
2022-10-02T02:58:12.947Z,100216.75
2022-10-02T03:00:40.382Z,100225.81
2022-10-02T03:03:07.082Z,100221.78
2022-10-02T03:05:36.267Z,100223.16
2022-10-02T03:08:15.364Z,100219.84
2022-10-02T03:11:11.538Z,100223.72
2022-10-02T03:14:15.435Z,100228.00
2022-10-02T03:17:07.789Z,100226.81
2022-10-02T03:19:56.295Z,100218.72
2022-10-02T03:22:49.948Z,100229.03
2022-10-02T03:25:38.275Z,100237.25
2022-10-02T03:28:37.264Z,100231.22
2022-10-02T03:31:08.595Z,100241.75
2022-10-02T03:33:38.340Z,100239.31
2022-10-02T03:36:05.356Z,100235.97
2022-10-02T03:38:33.844Z,100238.38
2022-10-02T03:41:00.445Z,100239.44
2022-10-02T03:43:29.302Z,100233.44
2022-10-02T03:45:56.841Z,100237.94
2022-10-02T03:48:24.273Z,100227.59
2022-10-02T03:50:51.003Z,100241.75
2022-10-02T03:53:24.712Z,100226.34
2022-10-02T03:56:02.940Z,100229.56
2022-10-02T03:58:30.209Z,100229.34
2022-10-02T04:01:03.056Z,100236.09
2022-10-02T04:03:51.435Z,100242.38
2022-10-02T04:06:53.159Z,100253.31
2022-10-02T04:09:30.680Z,100241.19
2022-10-02T04:12:10.916Z,100244.06
2022-10-02T04:14:43.075Z,100249.13
2022-10-02T04:17:20.577Z,100252.56
2022-10-02T04:19:55.870Z,100241.00
2022-10-02T04:22:47.821Z,100250.88
2022-10-02T04:25:24.970Z,100247.41
2022-10-02T04:27:59.606Z,100251.38
2022-10-02T04:30:26.273Z,100258.75
2022-10-02T04:32:53.952Z,100256.53
2022-10-02T04:35:33.853Z,100259.97
2022-10-02T04:38:04.080Z,100259.34
2022-10-02T04:40:50.319Z,100249.56
2022-10-02T04:43:32.268Z,100247.00
2022-10-02T04:46:24.958Z,100246.13
2022-10-02T04:48:57.380Z,100249.22
2022-10-02T04:51:42.032Z,100249.72
2022-10-02T04:54:38.407Z,100252.63
2022-10-02T04:57:27.425Z,100262.84
2022-10-02T05:00:11.384Z,100251.94
2022-10-02T05:02:47.336Z,100260.50
2022-10-02T05:05:38.733Z,100258.13
2022-10-02T05:08:29.563Z,100266.31
2022-10-02T05:11:14.731Z,100257.84
2022-10-02T05:13:53.960Z,100252.75
2022-10-02T05:16:51.076Z,100257.94
2022-10-02T05:19:36.846Z,100262.00
2022-10-02T05:22:18.357Z,100268.97
2022-10-02T05:24:50.519Z,100272.44
2022-10-02T05:27:34.487Z,100276.13
2022-10-02T05:30:16.085Z,100271.31
2022-10-02T05:33:05.155Z,100270.09
2022-10-02T05:36:07.910Z,100277.81
2022-10-02T05:38:57.632Z,100269.56
2022-10-02T05:41:24.540Z,100273.19
2022-10-02T05:44:04.307Z,100269.44
2022-10-02T05:46:36.747Z,100276.13
2022-10-02T05:49:14.958Z,100279.97
2022-10-02T05:51:59.584Z,100278.72
2022-10-02T05:54:37.179Z,100276.56
2022-10-02T05:57:27.422Z,100289.59
2022-10-02T06:00:19.094Z,100285.59
2022-10-02T06:02:45.728Z,100276.66
2022-10-02T06:05:24.366Z,100275.94
2022-10-02T06:07:56.326Z,100279.66
2022-10-02T06:10:35.921Z,100275.47
2022-10-02T06:13:21.894Z,100284.81
2022-10-02T06:16:00.108Z,100311.28
2022-10-02T06:18:31.429Z,100318.88
2022-10-02T06:21:10.643Z,100329.97
2022-10-02T06:23:44.671Z,100340.00
2022-10-02T06:26:17.655Z,100360.72
2022-10-02T06:28:51.137Z,100347.72
2022-10-02T06:31:45.026Z,100338.16
2022-10-02T06:34:13.880Z,100343.91
2022-10-02T06:36:49.493Z,100346.28
2022-10-02T06:39:28.655Z,100334.00
2022-10-02T06:42:08.171Z,100344.97
2022-10-02T06:44:53.133Z,100348.66
2022-10-02T06:47:57.351Z,100344.97
2022-10-02T06:50:45.934Z,100346.94
2022-10-02T06:53:30.294Z,100351.97
2022-10-02T06:56:00.297Z,100352.63
2022-10-02T06:58:41.971Z,100352.06
2022-10-02T07:01:25.508Z,100351.06
2022-10-02T07:04:04.083Z,100351.63
2022-10-02T07:06:42.934Z,100360.25
2022-10-02T07:09:34.739Z,100381.09
2022-10-02T07:12:26.592Z,100385.09
2022-10-02T07:15:44.590Z,100377.25
2022-10-02T07:18:27.340Z,100377.28
2022-10-02T07:20:54.609Z,100376.53
2022-10-02T07:23:40.765Z,100384.69
2022-10-02T07:26:26.410Z,100370.69
2022-10-02T07:29:04.777Z,100371.41
2022-10-02T07:32:05.530Z,100378.38
2022-10-02T07:34:37.940Z,100379.91
2022-10-02T07:37:25.889Z,100380.63
2022-10-02T07:40:02.000Z,100385.72
2022-10-02T07:42:31.716Z,100376.81
2022-10-02T07:45:28.695Z,100386.56
2022-10-02T07:48:04.900Z,100387.72
2022-10-02T07:50:40.757Z,100377.72
2022-10-02T07:53:39.025Z,100382.22
2022-10-02T07:56:09.151Z,100390.25
2022-10-02T07:58:41.743Z,100390.84
2022-10-02T08:01:16.539Z,100391.28
2022-10-02T08:03:48.883Z,100394.50
2022-10-02T08:06:17.321Z,100389.66
2022-10-02T08:08:56.419Z,100380.16
2022-10-02T08:11:38.957Z,100382.06
2022-10-02T08:14:14.933Z,100390.69
2022-10-02T08:16:57.250Z,100386.06
2022-10-02T08:19:33.354Z,100389.78
2022-10-02T08:22:26.892Z,100389.59
2022-10-02T08:25:01.426Z,100395.63
2022-10-02T08:27:46.786Z,100395.34
2022-10-02T08:30:14.425Z,100400.41
2022-10-02T08:32:41.105Z,100405.09
2022-10-02T08:35:16.639Z,100416.41
2022-10-02T08:38:20.016Z,100429.91
2022-10-02T08:41:08.076Z,100434.72
2022-10-02T08:43:46.508Z,100446.19
2022-10-02T08:46:23.346Z,100455.53
2022-10-02T08:49:02.102Z,100459.69
2022-10-02T08:51:51.047Z,100459.41
2022-10-02T08:54:20.288Z,100462.72
2022-10-02T08:57:19.405Z,100456.06
2022-10-02T09:00:14.733Z,100458.53
2022-10-02T09:02:47.409Z,100451.91
2022-10-02T09:05:39.454Z,100463.78
2022-10-02T09:08:35.770Z,100468.97
2022-10-02T09:11:08.198Z,100461.94
2022-10-02T09:14:02.620Z,100465.44
2022-10-02T09:16:39.828Z,100465.47
2022-10-02T09:19:44.838Z,100476.78
2022-10-02T09:22:56.496Z,100474.25
2022-10-02T09:25:55.509Z,100472.66
2022-10-02T09:28:40.793Z,100468.81
2022-10-02T09:31:53.297Z,100467.88
2022-10-02T09:35:14.624Z,100468.22
2022-10-02T09:38:07.040Z,100468.53
2022-10-02T09:40:46.818Z,100464.06
2022-10-02T09:43:45.826Z,100463.78
2022-10-02T09:47:00.293Z,100442.47
2022-10-02T09:49:51.908Z,100445.25
2022-10-02T09:52:57.032Z,100455.09
2022-10-02T09:55:35.283Z,100446.94
2022-10-02T09:58:26.964Z,100450.00
2022-10-02T10:01:34.931Z,100453.75
2022-10-02T10:04:30.474Z,100446.59
2022-10-02T10:07:42.979Z,100441.47
2022-10-02T10:10:31.661Z,100440.47
2022-10-02T10:13:26.258Z,100452.16
2022-10-02T10:15:58.927Z,100447.31
2022-10-02T10:18:57.489Z,100445.88
2022-10-02T10:21:52.017Z,100460.94
2022-10-02T10:24:31.301Z,100462.88
2022-10-02T10:27:09.283Z,100457.88
2022-10-02T10:29:58.398Z,100444.69
2022-10-02T10:33:06.206Z,100455.91
2022-10-02T10:36:36.411Z,100464.28
2022-10-02T10:39:26.604Z,100469.19
2022-10-02T10:42:44.741Z,100465.00
2022-10-02T10:45:44.956Z,100471.97
2022-10-02T10:48:23.788Z,100462.13
2022-10-02T10:51:14.606Z,100471.31
2022-10-02T10:54:13.606Z,100467.56
2022-10-02T10:56:54.490Z,100474.28
2022-10-02T10:59:33.747Z,100478.56
2022-10-02T11:02:24.021Z,100472.16
2022-10-02T11:05:12.794Z,100478.38
2022-10-02T11:07:58.087Z,100475.22
2022-10-02T11:10:47.809Z,100485.91
2022-10-02T11:13:59.285Z,100490.13
2022-10-02T11:16:58.871Z,100491.44
2022-10-02T11:19:35.531Z,100492.56
2022-10-02T11:22:39.553Z,100501.16
2022-10-02T11:25:45.774Z,100484.53
2022-10-02T11:28:47.918Z,100497.22
2022-10-02T11:31:30.126Z,100496.47
2022-10-02T11:34:24.566Z,100499.13
2022-10-02T11:37:19.631Z,100506.59
2022-10-02T11:40:16.933Z,100502.25
2022-10-02T11:42:52.812Z,100505.81
2022-10-02T11:45:53.028Z,100501.44
2022-10-02T11:48:34.667Z,100501.34
2022-10-02T11:51:26.220Z,100510.63
2022-10-02T11:54:02.161Z,100503.88
2022-10-02T11:57:00.485Z,100497.06
2022-10-02T11:59:52.426Z,100493.25
2022-10-02T12:02:28.465Z,100503.94
2022-10-02T12:05:15.521Z,100500.94
2022-10-02T12:07:52.396Z,100498.13
2022-10-02T12:10:52.630Z,100495.66
2022-10-02T12:13:38.255Z,100500.41
2022-10-02T12:16:24.014Z,100501.47
2022-10-02T12:19:09.512Z,100505.44
2022-10-02T12:22:23.939Z,100504.13
2022-10-02T12:25:38.206Z,100504.78
2022-10-02T12:28:22.789Z,100512.56
2022-10-02T12:31:12.258Z,100515.13
2022-10-02T12:33:56.454Z,100516.03
2022-10-02T12:36:46.848Z,100518.41
2022-10-02T12:40:10.658Z,100515.78
2022-10-02T12:42:55.618Z,100517.78
2022-10-02T12:45:34.670Z,100518.00
2022-10-02T12:48:26.062Z,100514.84
2022-10-02T12:51:17.919Z,100512.59
2022-10-02T12:54:19.260Z,100518.72
2022-10-02T12:57:39.287Z,100519.09
2022-10-02T13:00:16.184Z,100519.47
2022-10-02T13:03:10.854Z,100517.34
2022-10-02T13:06:01.926Z,100515.28
2022-10-02T13:08:43.780Z,100520.28
2022-10-02T13:11:44.788Z,100524.28
2022-10-02T13:14:26.320Z,100531.91
2022-10-02T13:17:28.638Z,100521.06
2022-10-02T13:20:12.284Z,100525.22
2022-10-02T13:23:07.605Z,100526.81
2022-10-02T13:25:57.128Z,100531.91
2022-10-02T13:28:29.784Z,100525.75
2022-10-02T13:31:17.085Z,100531.31
2022-10-02T13:34:02.150Z,100531.13
2022-10-02T13:37:01.498Z,100534.47
2022-10-02T13:40:03.940Z,100534.00
2022-10-02T13:43:01.670Z,100549.81
2022-10-02T13:45:49.712Z,100553.50
2022-10-02T13:48:55.144Z,100565.56
2022-10-02T13:51:55.857Z,100569.91
2022-10-02T13:54:39.484Z,100578.13
2022-10-02T13:57:41.444Z,100584.81
2022-10-02T14:00:42.198Z,100580.56
2022-10-02T14:03:46.874Z,100590.25
2022-10-02T14:06:25.535Z,100572.69
2022-10-02T14:09:08.047Z,100573.34
2022-10-02T14:11:52.947Z,100575.66
2022-10-02T14:14:43.888Z,100572.91
2022-10-02T14:17:29.227Z,100600.06
2022-10-02T14:20:22.710Z,100594.84
2022-10-02T14:23:24.899Z,100598.41
2022-10-02T14:26:13.260Z,100608.63
2022-10-02T14:28:57.844Z,100608.22
2022-10-02T14:32:01.197Z,100603.22
2022-10-02T14:37:46.831Z,100603.84
2022-10-02T14:40:17.173Z,100607.13
2022-10-02T14:42:57.297Z,100610.06
2022-10-02T14:46:03.109Z,100606.72
2022-10-02T14:49:12.358Z,100617.59
2022-10-02T14:52:12.365Z,100605.00
2022-10-02T14:55:16.779Z,100610.91
2022-10-02T14:58:03.142Z,100607.69
2022-10-02T15:01:02.773Z,100612.88
2022-10-02T15:03:56.459Z,100606.88
2022-10-02T15:06:28.121Z,100608.88
2022-10-02T15:09:00.832Z,100607.88
2022-10-02T15:11:36.910Z,100607.88
2022-10-02T15:14:13.752Z,100622.50
2022-10-02T15:17:08.288Z,100612.69
2022-10-02T15:19:47.748Z,100625.84
2022-10-02T15:22:29.964Z,100641.78
2022-10-02T15:25:17.780Z,100640.56
2022-10-02T15:27:54.628Z,100637.19
2022-10-02T15:30:23.525Z,100638.31
2022-10-02T15:33:11.931Z,100634.94
2022-10-02T15:35:54.577Z,100638.50
2022-10-02T15:38:37.699Z,100637.25
2022-10-02T15:41:32.044Z,100643.28
2022-10-02T15:44:07.780Z,100649.16
2022-10-02T15:46:49.876Z,100652.72
2022-10-02T15:49:54.400Z,100646.03
2022-10-02T15:52:39.717Z,100655.03
2022-10-02T15:55:38.693Z,100655.22
2022-10-02T15:58:17.041Z,100655.16
2022-10-02T16:01:02.403Z,100661.25
2022-10-02T16:03:48.301Z,100658.59
2022-10-02T16:06:41.403Z,100658.16
2022-10-02T16:09:50.082Z,100664.59
2022-10-02T16:12:25.203Z,100672.28
2022-10-02T16:15:13.989Z,100668.78
2022-10-02T16:18:07.136Z,100681.75
2022-10-02T16:21:02.033Z,100684.50
2022-10-02T16:23:51.087Z,100693.97
2022-10-02T16:26:59.359Z,100698.66
2022-10-02T16:29:54.206Z,100711.56
2022-10-02T16:32:51.813Z,100711.88
2022-10-02T16:35:25.136Z,100711.66
2022-10-02T16:38:18.404Z,100719.03
2022-10-02T16:41:00.382Z,100713.97
2022-10-02T16:44:11.788Z,100726.13
2022-10-02T16:46:44.371Z,100732.38
2022-10-02T16:49:17.317Z,100740.16
2022-10-02T16:52:03.164Z,100745.97
2022-10-02T16:54:29.631Z,100755.19
2022-10-02T16:57:07.044Z,100755.44
2022-10-02T16:59:51.712Z,100765.09
2022-10-02T17:02:19.268Z,100764.31
2022-10-02T17:05:15.828Z,100769.81
2022-10-02T17:07:54.733Z,100777.19
2022-10-02T17:10:32.833Z,100782.84
2022-10-02T17:13:26.592Z,100787.47
2022-10-02T17:15:59.148Z,100788.38
2022-10-02T17:18:48.440Z,100796.25
2022-10-02T17:21:44.521Z,100793.09
2022-10-02T17:24:14.007Z,100796.53
2022-10-02T17:26:53.653Z,100807.91
2022-10-02T17:29:33.261Z,100814.91
2022-10-02T17:32:01.449Z,100820.00
2022-10-02T17:34:32.393Z,100825.19
2022-10-02T17:37:25.504Z,100824.94
2022-10-02T17:40:06.621Z,100837.81
2022-10-02T17:43:26.826Z,100846.09
2022-10-02T17:46:19.092Z,100839.97
2022-10-02T17:49:08.626Z,100845.97
2022-10-02T17:51:53.738Z,100853.19
2022-10-02T17:54:45.778Z,100859.63
2022-10-02T17:57:50.980Z,100857.81
2022-10-02T18:00:24.332Z,100857.53
2022-10-02T18:03:10.177Z,100861.97
2022-10-02T18:06:13.929Z,100876.91
2022-10-02T18:09:11.106Z,100882.41
2022-10-02T18:11:55.773Z,100887.66
2022-10-02T18:14:52.699Z,100892.22
2022-10-02T18:17:51.603Z,100895.59
2022-10-02T18:20:24.122Z,100894.78
2022-10-02T18:22:59.238Z,100899.81
2022-10-02T18:25:31.804Z,100898.88
2022-10-02T18:28:12.792Z,100888.44
2022-10-02T18:31:13.022Z,100897.81
2022-10-02T18:33:50.111Z,100904.19
2022-10-02T18:37:02.857Z,100909.25
2022-10-02T18:40:03.605Z,100909.44
2022-10-02T18:42:44.178Z,100917.81
2022-10-02T18:45:45.155Z,100917.00
2022-10-02T18:48:24.929Z,100916.94
2022-10-02T18:51:10.060Z,100913.97
2022-10-02T18:53:44.835Z,100916.50
2022-10-02T18:56:12.714Z,100919.56
2022-10-02T18:59:06.199Z,100932.41
2022-10-02T19:01:51.173Z,100936.88
2022-10-02T19:04:48.971Z,100938.94
2022-10-02T19:07:23.939Z,100934.53
2022-10-02T19:10:10.393Z,100938.59
2022-10-02T19:12:43.537Z,100942.28
2022-10-02T19:15:22.505Z,100939.84
2022-10-02T19:18:06.881Z,100945.28
2022-10-02T19:21:06.622Z,100944.97
2022-10-02T19:23:46.286Z,100960.34
2022-10-02T19:26:40.557Z,100959.03
2022-10-02T19:29:25.911Z,100960.38
2022-10-02T19:31:54.059Z,100965.38
2022-10-02T19:34:25.594Z,100961.38
2022-10-02T19:36:57.231Z,100971.56
2022-10-02T19:39:23.759Z,100973.44
2022-10-02T19:41:55.783Z,100978.94
2022-10-02T19:44:47.901Z,100987.88
2022-10-02T19:47:27.649Z,100989.53
2022-10-02T19:49:56.859Z,100989.34
2022-10-02T19:52:35.736Z,100993.69
2022-10-02T19:55:16.087Z,100999.78
2022-10-02T19:57:45.527Z,100996.56
2022-10-02T20:00:17.702Z,100997.63
2022-10-02T20:02:48.085Z,100999.25
2022-10-02T20:05:21.230Z,101016.06
2022-10-02T20:07:52.154Z,101009.59
2022-10-02T20:10:26.599Z,101016.88
2022-10-02T20:13:20.280Z,101009.41
2022-10-02T20:16:41.030Z,101012.50
2022-10-02T20:19:16.525Z,101017.72
2022-10-02T20:21:48.419Z,101016.38
2022-10-02T20:24:41.245Z,101021.66
2022-10-02T20:27:26.161Z,101021.06
2022-10-02T20:30:00.797Z,101014.09
2022-10-02T20:32:37.180Z,101021.63
2022-10-02T20:35:14.162Z,101024.19
2022-10-02T20:37:43.057Z,101022.00
2022-10-02T20:40:23.383Z,101027.25
2022-10-02T20:42:59.857Z,101035.53
2022-10-02T20:45:50.388Z,101030.06
2022-10-02T20:49:06.450Z,101039.13
2022-10-02T20:51:53.976Z,101037.19
2022-10-02T20:54:45.549Z,101038.47
2022-10-02T20:57:56.343Z,101041.97
2022-10-02T21:00:24.985Z,101048.41
2022-10-02T21:03:01.015Z,101050.38
2022-10-02T21:05:49.565Z,101047.94
2022-10-02T21:08:40.484Z,101050.63
2022-10-02T21:11:35.618Z,101058.06
2022-10-02T21:14:16.338Z,101062.19
2022-10-02T21:17:03.316Z,101067.59
2022-10-02T21:20:00.564Z,101067.16
2022-10-02T21:22:59.866Z,101069.94
2022-10-02T21:25:54.319Z,101067.22
2022-10-02T21:28:42.516Z,101079.63
2022-10-02T21:31:29.305Z,101083.09
2022-10-02T21:34:08.709Z,101082.94
2022-10-02T21:36:47.019Z,101083.22
2022-10-02T21:39:33.499Z,101094.97
2022-10-02T21:42:17.536Z,101102.69
2022-10-02T21:44:54.401Z,101102.28
2022-10-02T21:47:39.256Z,101106.69
2022-10-02T21:50:31.504Z,101109.38
2022-10-02T21:53:31.983Z,101110.34
2022-10-02T21:56:34.551Z,101112.59
2022-10-02T21:59:26.962Z,101109.91
2022-10-02T22:02:19.344Z,101115.53
2022-10-02T22:05:09.255Z,101102.84
2022-10-02T22:08:21.427Z,101100.38
2022-10-02T22:11:14.778Z,101114.06
2022-10-02T22:13:45.717Z,101131.06
2022-10-02T22:16:28.649Z,101126.56
2022-10-02T22:19:41.173Z,101128.31
2022-10-02T22:22:29.522Z,101134.09
2022-10-02T22:25:36.384Z,101138.19
2022-10-02T22:28:35.193Z,101139.88
2022-10-02T22:31:07.757Z,101136.63
2022-10-02T22:33:54.952Z,101150.25
2022-10-02T22:36:37.833Z,101153.66
2022-10-02T22:39:33.561Z,101155.06
2022-10-02T22:42:05.278Z,101153.84
2022-10-02T22:44:50.397Z,101148.78
2022-10-02T22:47:35.710Z,101146.97
2022-10-02T22:50:11.506Z,101157.72
2022-10-02T22:52:49.527Z,101160.97
2022-10-02T22:55:16.489Z,101156.78
2022-10-02T22:58:05.619Z,101168.41
2022-10-02T23:00:51.075Z,101159.59
2022-10-02T23:03:23.256Z,101159.81
2022-10-02T23:06:00.891Z,101163.03
2022-10-02T23:08:33.277Z,101164.38
2022-10-02T23:11:06.744Z,101165.84
2022-10-02T23:13:50.827Z,101174.47
2022-10-02T23:16:51.161Z,101173.72
2022-10-02T23:19:38.788Z,101158.44
2022-10-02T23:22:17.662Z,101172.00
2022-10-02T23:24:57.415Z,101180.72
2022-10-02T23:27:41.148Z,101181.50
2022-10-02T23:30:18.082Z,101181.28
2022-10-02T23:32:59.848Z,101194.47
2022-10-02T23:35:36.109Z,101191.50
2022-10-02T23:38:24.446Z,101191.34
2022-10-02T23:41:28.735Z,101189.16
2022-10-02T23:44:19.799Z,101179.41
2022-10-02T23:47:02.492Z,101181.72
2022-10-02T23:49:37.535Z,101179.34
2022-10-02T23:52:15.852Z,101182.00
2022-10-02T23:54:58.284Z,101187.84
2022-10-02T23:57:50.977Z,101185.44
